Time;durP1;ratioP1;P1;durP2;ratioP2;P2;SDS_P1;SDS_P2;PMS_P1;PMS_P2;Temp;Humidity;BMP_temperature;BMP_pressure;BME280_temperature;BME280_humidity;BME280_pressure;Samples;Min_cycle;Max_cycle;Signal;HPM_P1;HPM_P2
2023/09/02 00:00:39;;;;;;;13.60;7.93;;;11.60;99.90;;;;;;5116312;28;20848;-52
2023/09/02 00:03:05;;;;;;;12.13;7.60;;;11.60;99.90;;;;;;5116420;28;20186;-53
2023/09/02 00:05:30;;;;;;;10.53;7.73;;;11.60;99.90;;;;;;5116350;28;20546;-52
2023/09/02 00:07:56;;;;;;;13.50;8.63;;;11.50;99.90;;;;;;5115690;28;20537;-52
2023/09/02 00:10:21;;;;;;;11.30;8.20;;;11.50;99.90;;;;;;5097501;28;20182;-53
2023/09/02 00:12:47;;;;;;;12.07;8.20;;;11.50;99.90;;;;;;5115947;28;20180;-53
2023/09/02 00:15:13;;;;;;;15.40;8.87;;;11.50;99.90;;;;;;5115821;28;20187;-52
2023/09/02 00:17:38;;;;;;;13.33;8.80;;;11.40;99.90;;;;;;5115868;28;20263;-51
2023/09/02 00:20:05;;;;;;;18.10;9.63;;;11.40;99.90;;;;;;5115892;28;20278;-52
2023/09/02 00:22:32;;;;;;;23.43;10.67;;;11.40;99.90;;;;;;5115453;28;20684;-52
2023/09/02 00:24:58;;;;;;;15.50;10.60;;;11.40;99.90;;;;;;5116014;28;20495;-52
2023/09/02 00:27:24;;;;;;;16.33;12.80;;;11.40;99.90;;;;;;5115749;28;20893;-51
2023/09/02 00:29:50;;;;;;;15.57;11.77;;;11.30;99.90;;;;;;5116164;28;20419;-52
2023/09/02 00:32:15;;;;;;;12.43;8.90;;;11.30;99.90;;;;;;5115534;28;20910;-52
2023/09/02 00:34:41;;;;;;;16.33;10.50;;;11.30;99.90;;;;;;5115881;28;20180;-51
2023/09/02 00:37:07;;;;;;;11.80;9.07;;;11.30;99.90;;;;;;5115545;28;20184;-52
2023/09/02 00:39:32;;;;;;;20.03;12.33;;;11.30;99.90;;;;;;5115105;28;20174;-51
2023/09/02 00:42:00;;;;;;;16.37;11.60;;;11.20;99.90;;;;;;5115447;28;20184;-53
2023/09/02 00:44:25;;;;;;;15.07;11.33;;;11.30;99.90;;;;;;5114218;28;20187;-51
2023/09/02 00:46:52;;;;;;;16.80;11.33;;;11.30;99.90;;;;;;5115568;28;20416;-52
2023/09/02 00:49:17;;;;;;;20.83;11.67;;;11.20;99.90;;;;;;5115435;28;20175;-52
2023/09/02 00:51:43;;;;;;;13.97;10.50;;;11.20;99.90;;;;;;5115366;28;20901;-53
2023/09/02 00:54:09;;;;;;;18.13;11.47;;;11.20;99.90;;;;;;5115473;28;20606;-52
2023/09/02 00:56:35;;;;;;;17.13;11.23;;;11.10;99.90;;;;;;5115173;28;20265;-51
2023/09/02 00:59:04;;;;;;;17.93;11.80;;;11.10;99.90;;;;;;5114757;28;20255;-51
2023/09/02 01:01:35;;;;;;;16.23;9.83;;;11.10;99.90;;;;;;5115500;28;20420;-52
2023/09/02 01:04:05;;;;;;;15.23;10.43;;;11.10;99.90;;;;;;5114907;28;20458;-52
2023/09/02 01:06:34;;;;;;;14.73;10.40;;;11.00;99.90;;;;;;5115317;28;20452;-52
2023/09/02 01:09:00;;;;;;;15.73;11.77;;;10.90;99.90;;;;;;5115129;28;20458;-52
2023/09/02 01:11:25;;;;;;;15.73;10.83;;;10.90;99.90;;;;;;5114712;28;20436;-50
2023/09/02 01:13:51;;;;;;;15.83;10.40;;;10.80;99.90;;;;;;5115072;28;20416;-51
2023/09/02 01:16:16;;;;;;;17.53;10.40;;;10.90;99.90;;;;;;5114746;28;20622;-52
2023/09/02 01:18:42;;;;;;;20.53;11.33;;;10.80;99.90;;;;;;5114924;28;20187;-50
2023/09/02 01:21:11;;;;;;;14.30;10.57;;;10.80;99.90;;;;;;5114987;28;20185;-51
2023/09/02 01:23:55;;;;;;;20.17;10.93;;;10.80;99.90;;;;;;5114367;28;20245;-50
2023/09/02 01:26:46;;;;;;;17.20;11.70;;;10.80;99.90;;;;;;5114696;28;20455;-51
2023/09/02 01:29:18;;;;;;;16.40;11.40;;;10.80;99.90;;;;;;5114190;28;20427;-51
2023/09/02 01:31:45;;;;;;;15.67;10.10;;;10.80;99.90;;;;;;5114734;28;20877;-51
2023/09/02 01:34:11;;;;;;;18.03;10.77;;;10.80;99.90;;;;;;5114553;28;20466;-52
2023/09/02 01:36:39;;;;;;;18.17;10.73;;;10.80;99.90;;;;;;5114121;28;20414;-51
2023/09/02 01:39:06;;;;;;;18.00;11.40;;;10.80;99.90;;;;;;5114422;28;20414;-51
2023/09/02 01:41:32;;;;;;;17.40;10.73;;;10.80;99.90;;;;;;5114225;28;20457;-51
2023/09/02 01:43:59;;;;;;;17.83;10.10;;;10.70;99.90;;;;;;5114253;28;20431;-51
2023/09/02 01:46:25;;;;;;;18.13;10.27;;;10.70;99.90;;;;;;5114229;28;20556;-52
2023/09/02 01:48:51;;;;;;;15.37;9.93;;;10.70;99.90;;;;;;5114566;28;20425;-51
2023/09/02 01:51:18;;;;;;;16.50;10.07;;;10.70;99.90;;;;;;5114173;28;20413;-50
2023/09/02 01:53:43;;;;;;;15.20;9.73;;;10.70;99.90;;;;;;5114456;28;20464;-52
2023/09/02 01:56:10;;;;;;;15.90;10.60;;;10.70;99.90;;;;;;5113798;28;20525;-51
2023/09/02 01:58:35;;;;;;;17.77;11.83;;;10.70;99.90;;;;;;5114401;28;20189;-50
2023/09/02 02:01:01;;;;;;;19.20;11.80;;;10.70;99.90;;;;;;5114390;28;20407;-51
2023/09/02 02:03:36;;;;;;;18.53;11.70;;;10.70;99.90;;;;;;5114032;28;20174;-51
2023/09/02 02:06:05;;;;;;;16.53;11.20;;;10.70;99.90;;;;;;5113774;28;20645;-51
2023/09/02 02:08:46;;;;;;;17.27;10.27;;;10.70;99.90;;;;;;5113733;28;20423;-51
2023/09/02 02:11:14;;;;;;;17.50;11.27;;;10.60;99.90;;;;;;5114391;28;20437;-51
2023/09/02 02:13:41;;;;;;;16.00;10.60;;;10.60;99.90;;;;;;5114117;28;20481;-51
2023/09/02 02:16:06;;;;;;;19.57;11.57;;;10.60;99.90;;;;;;5113576;28;20469;-51
2023/09/02 02:18:32;;;;;;;19.80;12.50;;;10.60;99.90;;;;;;5113838;28;20421;-51
2023/09/02 02:21:03;;;;;;;17.57;11.37;;;10.60;99.90;;;;;;5113688;28;20224;-51
2023/09/02 02:23:29;;;;;;;18.30;11.87;;;10.60;99.90;;;;;;5113693;28;20244;-51
2023/09/02 02:26:02;;;;;;;19.90;11.00;;;10.60;99.90;;;;;;5113955;28;20487;-50
2023/09/02 02:28:28;;;;;;;17.87;12.33;;;10.60;99.90;;;;;;5114368;28;20420;-50
2023/09/02 02:30:55;;;;;;;18.97;12.80;;;10.60;99.90;;;;;;5113785;28;20430;-50
2023/09/02 02:33:20;;;;;;;24.50;11.73;;;10.60;99.90;;;;;;5113836;28;20431;-52
2023/09/02 02:35:46;;;;;;;14.57;10.47;;;10.60;99.90;;;;;;5113490;28;20786;-50
2023/09/02 02:38:12;;;;;;;16.13;10.97;;;10.60;99.90;;;;;;5113604;28;20185;-50
2023/09/02 02:40:37;;;;;;;22.03;12.87;;;10.60;99.90;;;;;;5113757;28;20637;-49
2023/09/02 02:43:03;;;;;;;19.90;13.07;;;10.50;99.90;;;;;;5113488;28;20197;-50
2023/09/02 02:45:28;;;;;;;19.33;12.23;;;10.50;99.90;;;;;;5113478;28;20268;-50
2023/09/02 02:47:54;;;;;;;19.40;12.10;;;10.50;99.90;;;;;;5114088;28;20183;-49
2023/09/02 02:50:20;;;;;;;16.80;12.30;;;10.50;99.90;;;;;;5113866;28;20202;-50
2023/09/02 02:52:45;;;;;;;20.40;13.00;;;10.50;99.90;;;;;;5113875;28;20187;-50
2023/09/02 02:55:12;;;;;;;12.73;9.60;;;10.50;99.90;;;;;;5113681;28;20642;-51
2023/09/02 02:57:37;;;;;;;15.57;11.27;;;10.40;99.90;;;;;;5113754;28;20189;-49
2023/09/02 03:00:04;;;;;;;16.17;11.20;;;10.40;99.90;;;;;;5113419;28;20407;-50
2023/09/02 03:02:30;;;;;;;18.30;12.80;;;10.30;99.90;;;;;;5113504;28;20184;-51
2023/09/02 03:04:56;;;;;;;18.20;10.30;;;10.30;99.90;;;;;;5113197;28;20455;-50
2023/09/02 03:07:21;;;;;;;17.93;12.50;;;10.30;99.90;;;;;;5114311;28;20273;-49
2023/09/02 03:09:47;;;;;;;17.53;12.27;;;10.20;99.90;;;;;;5117437;28;20179;-49
2023/09/02 03:12:12;;;;;;;19.00;12.57;;;10.20;99.90;;;;;;5117455;28;20182;-50
2023/09/02 03:14:38;;;;;;;20.13;12.33;;;10.20;99.90;;;;;;5117091;28;20175;-50
2023/09/02 03:17:03;;;;;;;18.47;13.07;;;10.20;99.90;;;;;;5117416;28;20197;-50
2023/09/02 03:19:29;;;;;;;21.47;12.80;;;10.20;99.90;;;;;;5117338;28;20179;-50
2023/09/02 03:21:54;;;;;;;22.40;12.87;;;10.20;99.90;;;;;;5116629;28;20238;-50
2023/09/02 03:24:20;;;;;;;18.87;12.40;;;10.20;99.90;;;;;;5116936;28;20264;-49
2023/09/02 03:26:46;;;;;;;18.70;11.50;;;10.20;99.90;;;;;;5116814;28;20207;-49
2023/09/02 03:29:11;;;;;;;16.60;13.03;;;10.20;99.90;;;;;;5117034;28;20181;-51
2023/09/02 03:31:37;;;;;;;18.90;11.93;;;10.20;99.90;;;;;;5116914;28;20660;-53
2023/09/02 03:34:02;;;;;;;19.73;11.77;;;10.20;99.90;;;;;;5116478;28;20185;-49
2023/09/02 03:36:28;;;;;;;22.67;12.63;;;10.20;99.90;;;;;;5116816;28;20177;-50
2023/09/02 03:38:53;;;;;;;19.73;13.40;;;10.30;99.90;;;;;;5116955;28;20560;-50
2023/09/02 03:41:20;;;;;;;20.30;13.47;;;10.30;99.90;;;;;;5116773;28;20546;-50
2023/09/02 03:43:46;;;;;;;21.67;13.00;;;10.30;99.90;;;;;;5116999;28;20195;-49
2023/09/02 03:46:13;;;;;;;19.87;12.83;;;10.30;99.90;;;;;;5116491;28;20443;-50
2023/09/02 03:48:38;;;;;;;17.60;11.47;;;10.20;99.90;;;;;;5116559;28;20416;-51
2023/09/02 03:51:12;;;;;;;16.40;12.03;;;10.20;99.90;;;;;;5116252;28;20470;-50
2023/09/02 03:53:41;;;;;;;13.90;9.70;;;10.20;99.90;;;;;;5116319;28;20568;-51
2023/09/02 03:56:07;;;;;;;18.13;11.93;;;10.10;99.90;;;;;;5116564;28;20427;-50
2023/09/02 03:58:32;;;;;;;21.00;12.13;;;10.10;99.90;;;;;;5116460;28;20409;-51
2023/09/02 04:00:58;;;;;;;20.30;12.23;;;10.00;99.90;;;;;;5116153;28;20927;-50
2023/09/02 04:03:25;;;;;;;17.93;11.40;;;10.00;99.90;;;;;;5116347;28;20174;-51
2023/09/02 04:05:52;;;;;;;19.50;11.50;;;10.00;99.90;;;;;;5116166;28;20215;-50
2023/09/02 04:08:26;;;;;;;17.27;11.33;;;9.90;99.90;;;;;;5115974;28;20903;-50
2023/09/02 04:10:53;;;;;;;19.17;12.40;;;9.90;99.90;;;;;;5116398;28;20409;-50
2023/09/02 04:13:23;;;;;;;17.60;11.87;;;9.90;99.90;;;;;;5116093;28;20813;-52
2023/09/02 04:15:50;;;;;;;19.80;12.77;;;9.80;99.90;;;;;;5116474;28;20409;-49
2023/09/02 04:18:15;;;;;;;17.47;12.17;;;9.90;99.90;;;;;;5116386;28;20496;-50
2023/09/02 04:20:41;;;;;;;20.07;12.90;;;9.90;99.90;;;;;;5097809;28;20824;-50
2023/09/02 04:23:07;;;;;;;18.90;12.87;;;9.90;99.90;;;;;;5115681;28;20358;-50
2023/09/02 04:25:33;;;;;;;18.60;11.80;;;9.90;99.90;;;;;;5115966;28;20227;-50
2023/09/02 04:27:58;;;;;;;14.83;10.63;;;9.90;99.90;;;;;;5115964;28;20533;-51
2023/09/02 04:30:27;;;;;;;16.63;10.70;;;9.80;99.90;;;;;;5115722;28;20798;-52
2023/09/02 04:32:52;;;;;;;20.30;12.10;;;9.80;99.90;;;;;;5115545;28;20665;-49
2023/09/02 04:35:18;;;;;;;16.70;11.67;;;9.80;99.90;;;;;;5115811;28;20424;-50
2023/09/02 04:37:43;;;;;;;19.03;13.27;;;9.80;99.90;;;;;;5115622;28;20243;-50
2023/09/02 04:40:10;;;;;;;20.97;13.13;;;9.80;99.90;;;;;;5115297;28;20184;-50
2023/09/02 04:42:40;;;;;;;28.60;14.23;;;9.80;99.90;;;;;;5115248;28;20212;-49
2023/09/02 04:45:06;;;;;;;18.80;12.83;;;9.90;99.90;;;;;;5115182;28;20459;-50
2023/09/02 04:47:32;;;;;;;21.20;13.97;;;9.90;99.90;;;;;;5115528;28;20414;-51
2023/09/02 04:49:57;;;;;;;22.00;13.37;;;9.90;99.90;;;;;;5115629;28;20801;-51
2023/09/02 04:52:23;;;;;;;25.73;15.43;;;9.90;99.90;;;;;;5115461;28;20178;-50
2023/09/02 04:54:48;;;;;;;20.53;13.73;;;10.00;99.90;;;;;;5115094;28;20643;-50
2023/09/02 04:57:14;;;;;;;25.70;15.80;;;10.00;99.90;;;;;;5115084;28;20182;-50
2023/09/02 04:59:40;;;;;;;28.10;16.67;;;10.10;99.90;;;;;;5115007;28;20306;-51
2023/09/02 05:02:05;;;;;;;23.60;14.87;;;10.10;99.90;;;;;;5114784;28;20186;-50
2023/09/02 05:04:31;;;;;;;31.67;16.60;;;10.20;99.90;;;;;;5114797;28;20184;-50
2023/09/02 05:06:56;;;;;;;24.67;16.20;;;10.30;99.90;;;;;;5114650;28;20567;-51
2023/09/02 05:09:23;;;;;;;27.60;15.60;;;10.30;99.90;;;;;;5114659;28;20185;-49
2023/09/02 05:11:48;;;;;;;27.97;17.93;;;10.40;99.90;;;;;;5097128;28;20178;-50
2023/09/02 05:14:14;;;;;;;33.40;17.93;;;10.50;99.90;;;;;;5114561;28;20441;-50
2023/09/02 05:16:40;;;;;;;22.23;15.33;;;10.50;99.90;;;;;;5114708;28;20183;-51
2023/09/02 05:19:05;;;;;;;23.60;15.60;;;10.60;99.90;;;;;;5115169;28;20197;-50
2023/09/02 05:21:31;;;;;;;23.73;15.10;;;10.60;99.90;;;;;;5114735;28;20190;-50
2023/09/02 05:23:56;;;;;;;28.30;16.60;;;10.60;99.90;;;;;;5114624;28;20170;-50
2023/09/02 05:26:22;;;;;;;27.47;17.50;;;10.70;99.90;;;;;;5114540;28;20212;-51
2023/09/02 05:28:48;;;;;;;31.90;17.63;;;10.80;99.90;;;;;;5114571;28;20205;-50
2023/09/02 05:31:13;;;;;;;33.40;16.73;;;10.80;99.90;;;;;;5114057;28;20650;-51
2023/09/02 05:33:39;;;;;;;28.97;16.53;;;11.00;99.90;;;;;;5114459;28;20265;-50
2023/09/02 05:36:04;;;;;;;28.23;17.10;;;11.00;99.90;;;;;;5114534;28;20190;-51
2023/09/02 05:38:30;;;;;;;28.20;18.20;;;11.10;99.90;;;;;;5114778;28;20188;-51
2023/09/02 05:40:56;;;;;;;30.30;16.90;;;11.20;99.90;;;;;;5113979;28;20214;-51
2023/09/02 05:43:24;;;;;;;37.30;19.17;;;11.30;99.90;;;;;;5114420;28;20188;-51
2023/09/02 05:45:50;;;;;;;31.17;17.93;;;11.30;99.90;;;;;;5114217;28;20213;-50
2023/09/02 05:48:16;;;;;;;27.80;16.83;;;11.40;99.90;;;;;;5114008;28;20923;-53
2023/09/02 05:50:42;;;;;;;31.00;19.03;;;11.50;99.90;;;;;;5114112;28;20190;-48
2023/09/02 05:53:08;;;;;;;24.63;15.93;;;11.60;99.90;;;;;;5113985;28;20405;-51
2023/09/02 05:55:34;;;;;;;26.87;18.20;;;11.70;99.90;;;;;;5114365;28;20429;-50
2023/09/02 05:58:00;;;;;;;31.03;18.17;;;11.70;99.90;;;;;;5114026;28;20191;-51
2023/09/02 06:00:25;;;;;;;29.23;17.97;;;11.80;99.90;;;;;;5114494;28;20414;-50
2023/09/02 06:02:51;;;;;;;27.00;17.30;;;12.00;99.90;;;;;;5114002;28;20637;-51
2023/09/02 06:05:16;;;;;;;28.10;16.50;;;12.10;99.90;;;;;;5114075;28;20214;-52
2023/09/02 06:07:42;;;;;;;28.77;17.77;;;12.40;99.90;;;;;;5113919;28;20226;-51
2023/09/02 06:10:08;;;;;;;28.13;17.03;;;12.70;99.90;;;;;;5095902;28;20182;-52
2023/09/02 06:12:34;;;;;;;27.33;16.10;;;13.00;99.90;;;;;;5113668;28;20540;-51
2023/09/02 06:15:00;;;;;;;28.03;18.50;;;13.30;99.90;;;;;;5114094;28;20417;-54
2023/09/02 06:17:30;;;;;;;28.77;17.77;;;13.50;99.90;;;;;;5114132;28;20266;-53
2023/09/02 06:19:57;;;;;;;24.63;15.73;;;13.90;99.90;;;;;;5114009;28;20402;-53
2023/09/02 06:22:22;;;;;;;22.73;15.03;;;14.10;99.90;;;;;;5113686;28;20475;-53
2023/09/02 06:24:48;;;;;;;17.10;13.07;;;14.40;99.90;;;;;;5113730;28;20770;-53
2023/09/02 06:27:13;;;;;;;19.77;12.40;;;14.60;99.90;;;;;;5114311;28;20194;-53
2023/09/02 06:29:43;;;;;;;12.40;10.20;;;14.80;99.90;;;;;;5113543;28;20194;-53
2023/09/02 06:32:09;;;;;;;14.47;9.80;;;15.10;99.90;;;;;;5113917;28;20516;-54
2023/09/02 06:34:34;;;;;;;11.90;8.60;;;15.30;99.90;;;;;;5113779;28;20447;-53
2023/09/02 06:37:00;;;;;;;10.03;5.60;;;15.50;99.90;;;;;;5114204;28;20178;-55
2023/09/02 06:39:26;;;;;;;7.93;5.50;;;15.70;99.90;;;;;;5113656;28;20187;-55
2023/09/02 06:41:51;;;;;;;8.23;5.93;;;15.90;99.90;;;;;;5114094;28;20553;-55
2023/09/02 06:44:17;;;;;;;10.20;6.40;;;16.20;99.90;;;;;;5117970;28;20502;-55
2023/09/02 06:46:42;;;;;;;11.27;5.27;;;16.40;58.70;;;;;;5117932;28;20206;-55
2023/09/02 06:49:08;;;;;;;6.10;4.70;;;16.70;35.80;;;;;;5117713;28;20183;-53
2023/09/02 06:51:34;;;;;;;4.87;4.37;;;17.00;1.00;;;;;;5118108;28;20533;-55
2023/09/02 06:54:00;;;;;;;6.37;4.50;;;17.20;1.00;;;;;;5117324;28;20621;-55
2023/09/02 06:56:25;;;;;;;9.43;5.30;;;17.40;99.90;;;;;;5117858;28;20532;-57
2023/09/02 06:58:51;;;;;;;7.53;5.40;;;17.70;1.00;;;;;;5117349;28;20594;-57
2023/09/02 07:01:18;;;;;;;7.03;5.77;;;17.90;1.00;;;;;;5117138;28;20221;-56
2023/09/02 07:03:44;;;;;;;8.03;5.10;;;18.20;99.90;;;;;;5117414;28;20204;-56
2023/09/02 07:06:13;;;;;;;8.33;4.70;;;18.50;99.90;;;;;;5117177;28;20459;-57
2023/09/02 07:08:40;;;;;;;10.70;5.10;;;18.70;1.00;;;;;;5116921;28;20433;-56
2023/09/02 07:11:06;;;;;;;5.57;4.33;;;19.00;99.90;;;;;;5117169;28;20418;-56
2023/09/02 07:13:32;;;;;;;4.77;2.97;;;19.20;99.90;;;;;;5117194;28;20433;-56
2023/09/02 07:16:02;;;;;;;3.10;2.80;;;19.40;90.40;;;;;;5117121;28;20419;-56
2023/09/02 07:18:27;;;;;;;5.57;3.30;;;19.60;16.80;;;;;;5117354;28;20189;-57
2023/09/02 07:20:58;;;;;;;2.70;2.43;;;19.80;99.90;;;;;;5117198;28;20404;-56
2023/09/02 07:23:24;;;;;;;3.33;3.03;;;19.90;1.00;;;;;;5116646;28;20234;-56
2023/09/02 07:25:49;;;;;;;5.87;2.63;;;20.10;1.00;;;;;;5116806;28;20453;-56
2023/09/02 07:28:15;;;;;;;4.83;2.70;;;20.40;1.00;;;;;;5116746;28;20195;-57
2023/09/02 07:30:40;;;;;;;5.70;2.13;;;20.80;1.00;;;;;;5116681;28;20171;-56
2023/09/02 07:33:06;;;;;;;6.03;2.30;;;21.10;1.00;;;;;;5116835;28;20240;-57
2023/09/02 07:35:36;;;;;;;3.47;2.43;;;21.40;1.00;;;;;;5116595;28;20176;-57
2023/09/02 07:38:05;;;;;;;2.83;2.00;;;21.50;1.00;;;;;;5116649;28;20184;-57
2023/09/02 07:40:31;;;;;;;5.43;2.00;;;21.70;1.00;;;;;;5116359;28;20446;-56
2023/09/02 07:43:00;;;;;;;4.13;2.20;;;21.90;1.00;;;;;;5116647;28;20442;-57
2023/09/02 07:45:25;;;;;;;2.80;1.80;;;21.90;1.00;;;;;;5116849;28;20212;-55
2023/09/02 07:47:51;;;;;;;3.20;1.67;;;22.00;1.00;;;;;;5116514;28;20426;-56
2023/09/02 07:50:16;;;;;;;3.33;2.10;;;22.00;1.00;;;;;;5116464;28;20175;-56
2023/09/02 07:52:42;;;;;;;2.90;1.70;;;22.20;1.00;;;;;;5115850;28;20636;-56
2023/09/02 07:55:08;;;;;;;3.00;1.73;;;22.40;1.00;;;;;;5116186;28;20277;-55
2023/09/02 07:57:33;;;;;;;2.83;1.83;;;22.60;1.00;;;;;;5116337;28;20689;-54
2023/09/02 08:00:00;;;;;;;3.60;1.80;;;22.90;1.00;;;;;;5116340;28;20199;-56
2023/09/02 08:02:26;;;;;;;3.43;1.87;;;23.00;1.00;;;;;;5116282;28;20267;-56
2023/09/02 08:04:51;;;;;;;2.23;1.90;;;23.40;1.00;;;;;;5116079;28;20455;-55
2023/09/02 08:07:17;;;;;;;3.77;1.80;;;23.80;1.00;;;;;;5116091;28;20184;-56
2023/09/02 08:09:42;;;;;;;3.67;1.83;;;24.10;1.00;;;;;;5116019;28;20181;-56
2023/09/02 08:12:08;;;;;;;4.27;2.20;;;24.10;1.00;;;;;;5115989;28;20176;-56
2023/09/02 08:14:34;;;;;;;2.57;1.57;;;24.30;1.00;;;;;;5115533;28;20183;-53
2023/09/02 08:16:59;;;;;;;2.30;1.60;;;24.10;1.00;;;;;;5115811;28;20411;-57
2023/09/02 08:19:25;;;;;;;1.90;1.70;;;23.60;1.00;;;;;;5115803;28;20229;-56
2023/09/02 08:21:51;;;;;;;3.43;2.37;;;23.60;1.00;;;;;;5115630;28;20608;-57
2023/09/02 08:24:16;;;;;;;6.50;1.97;;;23.90;1.00;;;;;;5115425;28;20180;-56
2023/09/02 08:26:42;;;;;;;3.97;2.10;;;24.30;1.00;;;;;;5115670;28;20213;-54
2023/09/02 08:29:08;;;;;;;1.90;1.67;;;24.40;1.00;;;;;;5115840;28;20272;-57
2023/09/02 08:31:34;;;;;;;3.60;1.90;;;24.00;1.00;;;;;;5115680;28;20177;-55
2023/09/02 08:33:59;;;;;;;4.20;1.63;;;23.40;1.00;;;;;;5115554;28;20475;-57
2023/09/02 08:36:25;;;;;;;2.50;2.30;;;22.70;1.00;;;;;;5115222;28;20679;-57
2023/09/02 08:38:53;;;;;;;2.37;2.17;;;22.60;1.00;;;;;;5115349;28;20220;-57
2023/09/02 08:41:30;;;;;;;2.53;1.73;;;23.20;1.00;;;;;;5115485;28;20187;-57
2023/09/02 08:44:01;;;;;;;2.23;1.80;;;24.00;1.00;;;;;;5115057;28;20883;-56
2023/09/02 08:46:27;;;;;;;3.07;1.77;;;24.70;1.00;;;;;;5115143;28;20450;-57
2023/09/02 08:48:56;;;;;;;3.70;1.93;;;24.90;1.00;;;;;;5115904;28;20419;-55
2023/09/02 08:51:23;;;;;;;1.90;1.50;;;25.00;1.00;;;;;;5115356;28;20214;-56
2023/09/02 08:53:51;;;;;;;1.97;1.73;;;24.80;1.00;;;;;;5115276;28;20903;-56
2023/09/02 08:56:16;;;;;;;3.73;1.70;;;23.90;1.00;;;;;;5115534;28;20500;-56
2023/09/02 08:58:43;;;;;;;4.33;1.80;;;23.10;1.00;;;;;;5115001;28;20929;-56
2023/09/02 09:01:10;;;;;;;2.70;2.07;;;22.50;1.00;;;;;;5115104;28;20199;-57
2023/09/02 09:03:38;;;;;;;3.43;2.13;;;21.90;1.00;;;;;;5114905;28;20434;-56
2023/09/02 09:06:08;;;;;;;2.20;2.00;;;21.50;1.00;;;;;;5114363;28;20833;-55
2023/09/02 09:08:35;;;;;;;2.07;1.93;;;21.90;1.00;;;;;;5114827;28;20517;-54
2023/09/02 09:11:01;;;;;;;4.97;1.90;;;21.90;1.00;;;;;;5113975;28;20422;-54
2023/09/02 09:13:29;;;;;;;2.23;1.60;;;21.80;1.00;;;;;;5113257;28;20920;-54
2023/09/02 09:15:56;;;;;;;2.33;1.90;;;21.50;1.00;;;;;;5113113;28;20434;-54
2023/09/02 09:18:22;;;;;;;2.87;2.17;;;21.60;1.00;;;;;;5113486;28;20894;-53
2023/09/02 09:20:48;;;;;;;3.10;1.80;;;22.30;1.00;;;;;;5113359;28;20445;-54
2023/09/02 09:23:14;;;;;;;3.50;1.73;;;22.90;1.00;;;;;;5113255;28;20228;-54
2023/09/02 09:25:39;;;;;;;2.93;2.07;;;23.20;1.00;;;;;;5114362;28;20209;-55
2023/09/02 09:28:09;;;;;;;2.33;1.70;;;23.10;1.00;;;;;;5114082;28;20633;-55
2023/09/02 09:30:35;;;;;;;9.80;2.13;;;22.90;1.00;;;;;;5114346;28;20176;-55
2023/09/02 09:33:04;;;;;;;4.33;2.13;;;23.00;1.00;;;;;;5114966;28;20426;-55
2023/09/02 09:35:30;;;;;;;1.90;1.80;;;22.80;1.00;;;;;;5115060;28;20700;-55
2023/09/02 09:37:56;;;;;;;2.20;2.00;;;22.80;1.00;;;;;;5114624;28;20493;-55
2023/09/02 09:40:32;;;;;;;2.20;1.73;;;22.70;1.00;;;;;;5114771;28;20263;-55
2023/09/02 09:42:59;;;;;;;3.30;1.87;;;22.70;1.00;;;;;;5114451;28;20497;-55
2023/09/02 09:45:25;;;;;;;2.20;1.70;;;22.50;1.00;;;;;;5114461;28;20848;-54
2023/09/02 09:47:51;;;;;;;2.87;1.60;;;22.50;1.00;;;;;;5114391;28;20440;-55
2023/09/02 09:50:17;;;;;;;1.43;1.33;;;22.60;1.00;;;;;;5113937;28;20415;-55
2023/09/02 09:52:59;;;;;;;2.47;1.77;;;22.70;1.00;;;;;;5114286;28;20195;-55
2023/09/02 09:55:25;;;;;;;1.47;1.37;;;22.90;1.00;;;;;;5114429;28;20422;-56
2023/09/02 09:57:54;;;;;;;2.80;1.63;;;22.80;1.00;;;;;;5114047;28;20415;-53
2023/09/02 10:00:20;;;;;;;2.47;1.90;;;22.70;1.00;;;;;;5114157;28;20529;-55
2023/09/02 10:02:56;;;;;;;2.43;1.70;;;22.00;1.00;;;;;;5113959;28;20415;-54
2023/09/02 10:05:28;;;;;;;2.20;2.00;;;21.50;1.00;;;;;;5113658;28;20211;-55
2023/09/02 10:08:07;;;;;;;3.57;1.90;;;21.20;1.00;;;;;;5114083;28;20418;-54
2023/09/02 10:10:37;;;;;;;2.23;1.70;;;20.90;1.00;;;;;;5113931;28;20494;-55
2023/09/02 10:13:04;;;;;;;3.40;1.73;;;20.70;1.00;;;;;;5114288;28;20395;-55
2023/09/02 10:15:30;;;;;;;3.50;1.93;;;20.50;1.00;;;;;;5114146;28;20486;-55
2023/09/02 10:18:04;;;;;;;2.47;1.73;;;20.40;1.00;;;;;;5113905;28;20415;-55
2023/09/02 10:20:31;;;;;;;3.77;2.10;;;20.50;1.00;;;;;;5113873;28;20830;-55
2023/09/02 10:23:03;;;;;;;2.70;1.90;;;20.50;1.00;;;;;;5113579;28;20481;-55
2023/09/02 10:25:52;;;;;;;2.33;1.70;;;20.60;1.00;;;;;;5114079;28;20453;-55
2023/09/02 10:28:24;;;;;;;3.47;2.20;;;20.60;1.00;;;;;;5113476;28;20540;-54
2023/09/02 10:30:52;;;;;;;1.97;1.70;;;21.20;1.00;;;;;;5113753;28;20481;-54
2023/09/02 10:33:35;;;;;;;3.83;1.80;;;22.10;1.00;;;;;;5113710;28;20433;-54
2023/09/02 10:36:05;;;;;;;2.40;1.93;;;22.90;1.00;;;;;;5114013;28;20410;-55
2023/09/02 10:38:37;;;;;;;4.07;2.20;;;23.70;1.00;;;;;;5114180;28;20509;-55
2023/09/02 10:41:13;;;;;;;4.30;1.70;;;24.40;1.00;;;;;;5113741;28;20450;-55
2023/09/02 10:43:40;;;;;;;2.20;1.77;;;24.80;1.00;;;;;;5113866;28;20434;-54
2023/09/02 10:46:08;;;;;;;2.53;1.50;;;25.20;1.00;;;;;;5114052;28;20455;-55
2023/09/02 10:48:36;;;;;;;2.63;1.60;;;25.70;1.00;;;;;;5113832;28;20483;-54
2023/09/02 10:51:04;;;;;;;2.23;1.63;;;26.30;1.00;;;;;;5113414;28;20822;-55
2023/09/02 10:53:47;;;;;;;2.27;1.67;;;26.80;1.00;;;;;;5113414;28;20454;-54
2023/09/02 10:56:24;;;;;;;1.83;1.47;;;27.70;1.00;;;;;;5113614;28;20898;-55
2023/09/02 10:58:49;;;;;;;2.07;1.73;;;28.00;1.00;;;;;;5113910;28;20402;-55
2023/09/02 11:01:15;;;;;;;3.03;1.70;;;27.80;1.00;;;;;;5113119;28;20906;-54
2023/09/02 11:03:48;;;;;;;2.10;1.73;;;28.10;1.00;;;;;;5113449;28;20192;-52
2023/09/02 11:06:17;;;;;;;3.90;1.83;;;27.50;1.00;;;;;;5113342;28;20232;-53
2023/09/02 11:08:47;;;;;;;2.57;1.70;;;26.60;1.00;;;;;;5113178;28;20438;-53
2023/09/02 11:11:15;;;;;;;1.80;1.70;;;26.10;1.00;;;;;;5113610;28;20480;-53
2023/09/02 11:14:08;;;;;;;2.33;1.67;;;26.70;1.00;;;;;;5113258;28;20458;-53
2023/09/02 11:16:34;;;;;;;3.77;2.27;;;27.20;1.00;;;;;;5113514;28;20507;-53
2023/09/02 11:19:01;;;;;;;2.40;1.77;;;26.50;1.00;;;;;;5113030;28;20407;-53
2023/09/02 11:21:57;;;;;;;2.70;1.90;;;25.60;1.00;;;;;;5113189;28;20441;-53
2023/09/02 11:24:23;;;;;;;1.43;1.33;;;24.60;1.00;;;;;;5097064;28;20838;-55
2023/09/02 11:26:50;;;;;;;1.80;1.50;;;23.60;1.00;;;;;;5113236;28;20545;-53
2023/09/02 11:29:29;;;;;;;4.17;1.90;;;23.20;1.00;;;;;;5115311;28;20649;-55
2023/09/02 11:31:56;;;;;;;1.70;1.40;;;23.40;1.00;;;;;;5117056;28;20425;-55
2023/09/02 11:34:26;;;;;;;4.77;1.60;;;24.00;1.00;;;;;;5116701;28;20411;-55
2023/09/02 11:36:52;;;;;;;5.47;1.90;;;23.70;1.00;;;;;;5116880;28;20421;-53
2023/09/02 11:39:18;;;;;;;2.47;1.70;;;23.60;1.00;;;;;;5116684;28;20823;-53
2023/09/02 11:41:44;;;;;;;2.13;1.60;;;23.90;1.00;;;;;;5116596;28;20501;-52
2023/09/02 11:44:11;;;;;;;8.83;1.60;;;25.10;1.00;;;;;;5098184;28;20212;-54
2023/09/02 11:46:40;;;;;;;1.60;1.50;;;26.30;1.00;;;;;;5097826;28;20205;-54
2023/09/02 11:49:23;;;;;;;1.87;1.60;;;26.20;1.00;;;;;;5116571;28;20419;-54
2023/09/02 11:51:49;;;;;;;1.77;1.60;;;25.50;1.00;;;;;;5116401;28;20468;-53
2023/09/02 11:54:16;;;;;;;3.03;1.63;;;24.90;1.00;;;;;;5116411;28;20411;-55
2023/09/02 11:56:53;;;;;;;4.00;1.97;;;24.40;1.00;;;;;;5116866;28;20184;-53
2023/09/02 11:59:20;;;;;;;2.60;2.40;;;24.00;1.00;;;;;;5116377;28;20878;-54
2023/09/02 12:01:46;;;;;;;1.70;1.40;;;23.50;1.00;;;;;;5116389;28;20411;-54
2023/09/02 12:04:11;;;;;;;1.50;1.40;;;23.20;1.00;;;;;;5115975;28;20518;-53
2023/09/02 12:06:37;;;;;;;2.70;1.40;;;23.70;1.00;;;;;;5116190;28;20211;-54
2023/09/02 12:09:03;;;;;;;2.90;1.40;;;24.60;1.00;;;;;;5116227;28;20185;-54
2023/09/02 12:11:29;;;;;;;1.97;1.53;;;24.90;1.00;;;;;;5115945;28;20177;-54
2023/09/02 12:13:55;;;;;;;2.90;1.80;;;24.40;1.00;;;;;;5116229;28;20181;-54
2023/09/02 12:16:22;;;;;;;2.30;1.60;;;23.80;1.00;;;;;;5115991;28;20441;-55
2023/09/02 12:18:48;;;;;;;3.00;1.50;;;23.20;1.00;;;;;;5115971;28;20230;-51
2023/09/02 12:21:13;;;;;;;2.70;1.60;;;23.70;1.00;;;;;;5116313;28;20451;-55
2023/09/02 12:23:39;;;;;;;1.40;1.30;;;24.90;1.00;;;;;;5116131;28;20243;-53
2023/09/02 12:26:09;;;;;;;3.93;1.70;;;25.90;1.00;;;;;;5115772;28;20216;-52
2023/09/02 12:28:35;;;;;;;2.03;1.83;;;27.10;1.00;;;;;;5115662;28;20193;-54
2023/09/02 12:31:03;;;;;;;2.03;1.70;;;27.80;1.00;;;;;;5115646;28;20811;-53
2023/09/02 12:33:28;;;;;;;1.60;1.50;;;28.50;1.00;;;;;;5115689;28;20193;-53
2023/09/02 12:35:54;;;;;;;2.93;1.70;;;29.30;1.00;;;;;;5115772;28;20410;-52
2023/09/02 12:38:21;;;;;;;2.40;1.57;;;29.80;1.00;;;;;;5115223;28;20177;-53
2023/09/02 12:40:54;;;;;;;1.63;1.50;;;30.30;99.90;;;;;;5114177;28;20255;-52